Time;durP1;ratioP1;P1;durP2;ratioP2;P2;SDS_P1;SDS_P2;PMS_P1;PMS_P2;Temp;Humidity;BMP_temperature;BMP_pressure;BME280_temperature;BME280_humidity;BME280_pressure;Samples;Min_cycle;Max_cycle;Signal;HPM_P1;HPM_P2
2022/08/17 00:00:47;;;;;;;5.93;3.42;;;;;;;;;;5091554;28;19904;-65
2022/08/17 00:03:16;;;;;;;6.55;3.90;;;;;;;;;;5091748;28;20061;-65
2022/08/17 00:05:47;;;;;;;7.57;3.40;;;;;;;;;;5088763;28;20484;-65
2022/08/17 00:08:14;;;;;;;5.20;3.80;;;;;;;;;;5053889;28;20032;-65
2022/08/17 00:10:41;;;;;;;10.43;3.85;;;;;;;;;;5070969;28;20033;-65
2022/08/17 00:13:10;;;;;;;7.90;3.65;;;;;;;;;;5070891;28;20040;-65
2022/08/17 00:15:36;;;;;;;9.23;3.40;;;;;;;;;;5071637;28;20505;-65
2022/08/17 00:18:03;;;;;;;9.10;4.05;;;;;;;;;;5071382;28;20104;-65
2022/08/17 00:20:29;;;;;;;8.93;3.72;;;;;;;;;;5071493;28;20054;-65
2022/08/17 00:23:06;;;;;;;5.50;3.67;;;;;;;;;;5070345;28;20063;-65
2022/08/17 00:25:32;;;;;;;7.45;3.63;;;;;;;;;;5070838;28;20095;-65
2022/08/17 00:27:58;;;;;;;5.00;3.75;;;;;;;;;;5071278;28;20027;-65
2022/08/17 00:30:24;;;;;;;6.22;3.95;;;;;;;;;;5071199;28;20102;-65
2022/08/17 00:32:50;;;;;;;4.13;3.72;;;;;;;;;;5070609;28;20481;-65
2022/08/17 00:35:17;;;;;;;6.65;3.95;;;;;;;;;;5071140;28;20028;-65
2022/08/17 00:37:43;;;;;;;5.07;4.13;;;;;;;;;;5070283;28;20486;-65
2022/08/17 00:40:11;;;;;;;5.95;4.03;;;;;;;;;;5070668;28;20039;-65
2022/08/17 00:42:37;;;;;;;5.78;4.13;;;;;;;;;;5070055;28;20119;-65
2022/08/17 00:45:05;;;;;;;8.40;4.65;;;;;;;;;;5070625;28;20028;-65
2022/08/17 00:47:31;;;;;;;6.05;3.90;;;;;;;;;;5070850;28;20060;-65
2022/08/17 00:49:57;;;;;;;14.75;4.13;;;;;;;;;;5070472;28;20086;-65
2022/08/17 00:52:27;;;;;;;10.52;4.57;;;;;;;;;;5069912;28;20032;-66
2022/08/17 00:54:54;;;;;;;5.40;3.85;;;;;;;;;;5070816;28;20043;-65
2022/08/17 00:57:24;;;;;;;6.75;4.00;;;;;;;;;;5070591;28;20062;-65
2022/08/17 00:59:55;;;;;;;6.85;4.35;;;;;;;;;;5070693;28;20099;-65
2022/08/17 01:02:22;;;;;;;8.90;4.45;;;;;;;;;;5068958;28;20481;-65
2022/08/17 01:04:49;;;;;;;8.23;4.75;;;;;;;;;;5052694;28;20417;-65
2022/08/17 01:07:15;;;;;;;7.35;3.92;;;;;;;;;;5069337;28;20029;-65
2022/08/17 01:09:42;;;;;;;7.65;4.63;;;;;;;;;;5070779;28;20100;-65
2022/08/17 01:12:09;;;;;;;8.65;4.68;;;;;;;;;;5069363;28;20099;-65
2022/08/17 01:14:37;;;;;;;9.40;4.93;;;;;;;;;;5070651;28;20036;-65
2022/08/17 01:17:04;;;;;;;6.45;4.38;;;;;;;;;;5052238;28;20094;-65
2022/08/17 01:19:34;;;;;;;11.68;4.10;;;;;;;;;;5069847;28;20027;-65
2022/08/17 01:22:00;;;;;;;;;;;;;;;;;;5051315;28;20443;-65
2022/08/17 01:24:26;;;;;;;10.07;4.53;;;;;;;;;;5070131;28;19926;-65
2022/08/17 01:26:52;;;;;;;7.43;4.90;;;;;;;;;;5051992;28;20025;-65
2022/08/17 01:29:19;;;;;;;8.50;4.50;;;;;;;;;;5070058;28;20078;-65
2022/08/17 01:31:51;;;;;;;11.52;5.20;;;;;;;;;;5069357;28;20024;-65
2022/08/17 01:34:17;;;;;;;9.80;5.38;;;;;;;;;;5069785;28;20052;-65
2022/08/17 01:36:45;;;;;;;6.90;4.57;;;;;;;;;;5051544;28;20066;-65
2022/08/17 01:39:29;;;;;;;9.35;4.88;;;;;;;;;;5070231;28;20028;-65
2022/08/17 01:42:04;;;;;;;7.63;4.32;;;;;;;;;;5074836;28;20492;-66
2022/08/17 01:44:30;;;;;;;7.15;4.32;;;;;;;;;;5090124;28;20026;-66
2022/08/17 01:46:56;;;;;;;11.23;5.18;;;;;;;;;;5089750;28;20031;-65
2022/08/17 01:49:22;;;;;;;6.75;4.82;;;;;;;;;;5090140;28;20024;-65
2022/08/17 01:51:48;;;;;;;8.70;4.88;;;;;;;;;;5087790;28;20806;-66
2022/08/17 01:54:16;;;;;;;8.40;4.60;;;;;;;;;;5072087;28;20542;-65
2022/08/17 01:56:44;;;;;;;5.35;4.43;;;;;;;;;;5089827;28;20103;-65
2022/08/17 01:59:10;;;;;;;11.18;5.10;;;;;;;;;;5089352;28;20027;-65
2022/08/17 02:01:37;;;;;;;9.90;4.22;;;;;;;;;;5088846;28;20089;-65
2022/08/17 02:04:04;;;;;;;6.82;4.63;;;;;;;;;;5089606;28;20074;-65
2022/08/17 02:06:31;;;;;;;8.35;5.15;;;;;;;;;;5090047;28;20455;-65
2022/08/17 02:08:57;;;;;;;6.15;4.20;;;;;;;;;;5088233;28;20039;-65
2022/08/17 02:11:23;;;;;;;7.53;4.18;;;;;;;;;;5070770;28;20088;-65
2022/08/17 02:13:49;;;;;;;6.88;5.10;;;;;;;;;;5088601;28;20123;-66
2022/08/17 02:16:16;;;;;;;25.48;5.40;;;;;;;;;;5089878;28;20024;-65
2022/08/17 02:18:42;;;;;;;10.48;4.45;;;;;;;;;;5089608;28;20111;-65
2022/08/17 02:21:08;;;;;;;7.50;4.57;;;;;;;;;;5070779;28;20150;-65
2022/08/17 02:23:36;;;;;;;7.10;4.65;;;;;;;;;;5073598;28;20043;-65
2022/08/17 02:26:03;;;;;;;10.32;4.75;;;;;;;;;;5069451;28;20032;-65
2022/08/17 02:28:29;;;;;;;11.88;5.00;;;;;;;;;;5069156;28;20024;-65
2022/08/17 02:30:56;;;;;;;9.95;5.15;;;;;;;;;;5068312;28;20405;-66
2022/08/17 02:33:22;;;;;;;8.35;4.68;;;;;;;;;;5069050;28;20434;-65
2022/08/17 02:35:48;;;;;;;7.82;4.85;;;;;;;;;;5069019;28;20061;-65
2022/08/17 02:41:18;;;;;;;7.75;4.40;;;;;;;;;;5094785;23;20055;-65
2022/08/17 02:43:44;;;;;;;8.20;5.13;;;;;;;;;;5069376;28;20027;-64
2022/08/17 02:46:11;;;;;;;6.57;4.47;;;;;;;;;;5050959;28;20017;-65
2022/08/17 02:48:38;;;;;;;13.68;4.72;;;;;;;;;;5069385;28;20052;-64
2022/08/17 02:51:04;;;;;;;10.93;3.95;;;;;;;;;;5068029;28;20060;-64
2022/08/17 02:53:30;;;;;;;11.52;4.30;;;;;;;;;;5069275;28;20060;-64
2022/08/17 02:55:56;;;;;;;5.85;4.25;;;;;;;;;;5079907;28;20024;-65
2022/08/17 02:58:22;;;;;;;7.95;4.00;;;;;;;;;;5088659;28;20028;-65
2022/08/17 03:00:48;;;;;;;6.40;4.22;;;;;;;;;;5070323;28;20028;-64
2022/08/17 03:03:19;;;;;;;12.32;4.22;;;;;;;;;;5089704;28;20028;-64
2022/08/17 03:05:47;;;;;;;6.00;4.30;;;;;;;;;;5089445;28;20481;-64
2022/08/17 03:08:13;;;;;;;8.27;4.45;;;;;;;;;;5089116;28;20061;-65
2022/08/17 03:10:39;;;;;;;6.63;4.00;;;;;;;;;;5087454;28;20016;-64
2022/08/17 03:13:05;;;;;;;6.00;4.05;;;;;;;;;;5088955;28;20048;-64
2022/08/17 03:15:32;;;;;;;4.43;4.00;;;;;;;;;;5088594;28;20366;-64
2022/08/17 03:17:59;;;;;;;8.15;4.45;;;;;;;;;;5089116;28;20024;-64
2022/08/17 03:20:26;;;;;;;6.40;4.15;;;;;;;;;;5088420;28;20027;-64
2022/08/17 03:22:53;;;;;;;5.70;4.38;;;;;;;;;;5070230;28;20031;-67
2022/08/17 03:25:24;;;;;;;6.43;4.63;;;;;;;;;;5089107;28;20028;-65
2022/08/17 03:27:50;;;;;;;6.38;4.10;;;;;;;;;;5092704;28;20463;-64
2022/08/17 03:30:16;;;;;;;8.52;5.28;;;;;;;;;;5091967;28;20038;-65
2022/08/17 03:32:44;;;;;;;7.47;4.47;;;;;;;;;;5091947;28;20103;-65
2022/08/17 03:35:11;;;;;;;7.88;4.10;;;;;;;;;;5092113;28;20024;-64
2022/08/17 03:37:37;;;;;;;5.32;3.97;;;;;;;;;;5092406;28;20016;-64
2022/08/17 03:40:05;;;;;;;9.90;5.00;;;;;;;;;;5083677;28;20075;-65
2022/08/17 03:42:31;;;;;;;6.28;3.95;;;;;;;;;;5053534;28;20071;-64
2022/08/17 03:44:57;;;;;;;6.50;3.90;;;;;;;;;;5072330;28;20020;-65
2022/08/17 03:58:24;;;;;;;7.60;4.60;;;;;;;;;;5069805;28;20666;-64
2022/08/17 04:00:50;;;;;;;6.75;4.10;;;;;;;;;;5070367;28;20040;-65
2022/08/17 04:03:16;;;;;;;6.40;4.30;;;;;;;;;;5071695;28;20085;-64
2022/08/17 04:05:43;;;;;;;9.05;4.25;;;;;;;;;;5071355;28;20066;-64
2022/08/17 04:08:09;;;;;;;6.20;4.78;;;;;;;;;;5070245;28;20078;-64
2022/08/17 04:10:35;;;;;;;7.65;4.55;;;;;;;;;;5079980;28;20043;-65
2022/08/17 04:13:01;;;;;;;13.98;4.10;;;;;;;;;;5090562;28;20051;-64
2022/08/17 04:15:28;;;;;;;5.60;3.50;;;;;;;;;;5091585;28;20020;-64
2022/08/17 04:17:54;;;;;;;8.15;4.70;;;;;;;;;;5091605;28;20446;-65
2022/08/17 04:20:21;;;;;;;4.75;3.95;;;;;;;;;;5091339;28;20111;-64
2022/08/17 04:23:10;;;;;;;7.25;4.57;;;;;;;;;;5089601;28;20081;-64
2022/08/17 04:25:37;;;;;;;9.95;4.32;;;;;;;;;;5089959;28;20027;-65
2022/08/17 04:28:03;;;;;;;10.40;4.07;;;;;;;;;;5091490;28;20024;-65
2022/08/17 04:30:30;;;;;;;13.05;4.82;;;;;;;;;;5088829;28;20035;-65
2022/08/17 04:33:01;;;;;;;10.07;4.40;;;;;;;;;;5090471;28;20031;-65
2022/08/17 04:35:29;;;;;;;13.55;4.45;;;;;;;;;;5090941;28;20056;-64
2022/08/17 04:37:55;;;;;;;7.97;4.18;;;;;;;;;;5090811;28;20028;-65
2022/08/17 04:43:09;;;;;;;7.10;4.35;;;;;;;;;;5069991;28;20833;-65
2022/08/17 04:45:38;;;;;;;8.77;3.95;;;;;;;;;;5070907;28;20025;-64
2022/08/17 04:48:04;;;;;;;11.20;4.57;;;;;;;;;;5070326;28;20039;-65
2022/08/17 04:50:30;;;;;;;13.30;4.28;;;;;;;;;;5070852;28;20024;-64
2022/08/17 04:52:56;;;;;;;13.43;4.70;;;;;;;;;;5069597;28;20047;-64
2022/08/17 04:55:22;;;;;;;7.55;4.47;;;;;;;;;;5074148;28;20069;-64
2022/08/17 04:57:48;;;;;;;7.38;4.10;;;;;;;;;;5090444;28;20066;-65
2022/08/17 05:00:15;;;;;;;6.75;4.25;;;;;;;;;;5088499;28;20020;-64
2022/08/17 05:02:47;;;;;;;6.25;4.45;;;;;;;;;;5089128;28;20115;-64
2022/08/17 05:05:17;;;;;;;14.75;4.43;;;;;;;;;;5090740;28;20024;-64
2022/08/17 05:07:43;;;;;;;10.20;4.57;;;;;;;;;;5090610;28;20048;-64
2022/08/17 05:10:09;;;;;;;9.40;4.47;;;;;;;;;;5087380;28;20027;-65
2022/08/17 05:12:35;;;;;;;8.52;4.00;;;;;;;;;;5068922;28;20501;-64
2022/08/17 05:15:01;;;;;;;10.82;4.72;;;;;;;;;;5072153;28;20028;-65
2022/08/17 05:17:27;;;;;;;5.22;4.22;;;;;;;;;;5087272;28;20024;-64
2022/08/17 05:19:53;;;;;;;11.38;4.57;;;;;;;;;;5090521;28;20016;-65
2022/08/17 05:22:19;;;;;;;10.07;4.00;;;;;;;;;;5088841;28;20043;-64
2022/08/17 05:24:45;;;;;;;14.07;5.00;;;;;;;;;;5070361;28;20040;-65
2022/08/17 05:27:11;;;;;;;8.07;4.47;;;;;;;;;;5089188;28;20024;-64
2022/08/17 05:29:37;;;;;;;6.90;4.82;;;;;;;;;;5090417;28;20086;-64
2022/08/17 05:32:10;;;;;;;7.68;4.80;;;;;;;;;;5089210;28;20020;-64
2022/08/17 05:34:36;;;;;;;7.20;4.60;;;;;;;;;;5089670;28;20107;-64
2022/08/17 05:37:02;;;;;;;8.45;4.40;;;;;;;;;;5089834;28;20099;-64
2022/08/17 05:39:28;;;;;;;10.27;5.03;;;;;;;;;;5090109;28;20016;-64
2022/08/17 05:41:54;;;;;;;4.85;4.00;;;;;;;;;;5087097;28;20028;-65
2022/08/17 05:44:20;;;;;;;6.28;4.18;;;;;;;;;;5089739;28;20028;-64
2022/08/17 05:46:50;;;;;;;4.97;4.13;;;;;;;;;;5089696;28;20119;-64
2022/08/17 05:49:18;;;;;;;11.20;4.03;;;;;;;;;;5089604;28;20024;-64
2022/08/17 05:51:54;;;;;;;6.13;3.80;;;;;;;;;;5088412;28;20599;-65
2022/08/17 05:54:35;;;;;;;9.35;4.10;;;;;;;;;;5089946;28;20063;-64
2022/08/17 05:57:13;;;;;;;11.48;4.35;;;;;;;;;;5074938;28;20032;-65
2022/08/17 06:00:17;;;;;;;6.28;4.30;;;;;;;;;;5069734;28;20035;-64
2022/08/17 06:02:52;;;;;;;9.60;4.13;;;;;;;;;;4986451;28;20128;-64
2022/08/17 06:05:36;;;;;;;4.97;3.80;;;;;;;;;;4987571;28;20483;-64
2022/08/17 06:08:13;;;;;;;7.95;4.30;;;;;;;;;;4987200;28;20181;-65
2022/08/17 06:10:39;;;;;;;6.93;4.57;;;;;;;;;;4987813;28;20474;-65
2022/08/17 06:13:20;;;;;;;4.80;3.95;;;;;;;;;;4989894;28;20037;-64
2022/08/17 06:15:49;;;;;;;9.93;4.30;;;;;;;;;;5007045;28;20037;-64
2022/08/17 06:18:16;;;;;;;14.35;3.88;;;;;;;;;;5006973;28;20036;-64
2022/08/17 06:21:02;;;;;;;4.88;3.58;;;;;;;;;;5006831;28;20166;-65
2022/08/17 06:23:44;;;;;;;8.88;3.65;;;;;;;;;;5006243;28;20042;-64
2022/08/17 06:26:19;;;;;;;8.23;4.43;;;;;;;;;;5005953;28;20061;-64
2022/08/17 06:28:54;;;;;;;11.20;4.28;;;;;;;;;;5006955;28;20030;-64
2022/08/17 06:31:27;;;;;;;8.65;4.10;;;;;;;;;;5005973;28;20113;-65
2022/08/17 06:33:54;;;;;;;9.68;3.72;;;;;;;;;;5061469;28;20088;-65
2022/08/17 06:36:28;;;;;;;9.38;3.90;;;;;;;;;;5089517;28;20435;-64
2022/08/17 06:38:57;;;;;;;7.13;3.40;;;;;;;;;;5086466;28;20024;-65
2022/08/17 06:41:33;;;;;;;8.82;3.67;;;;;;;;;;5082650;28;20178;-65
2022/08/17 06:44:20;;;;;;;4.63;3.60;;;;;;;;;;5069141;28;20025;-64
2022/08/17 06:46:50;;;;;;;9.02;3.70;;;;;;;;;;5069184;28;20501;-64
2022/08/17 06:49:41;;;;;;;9.65;3.95;;;;;;;;;;5068691;28;20032;-64
2022/08/17 06:52:14;;;;;;;5.57;3.95;;;;;;;;;;5050182;28;20440;-64
2022/08/17 06:54:44;;;;;;;7.30;3.90;;;;;;;;;;5068891;28;20024;-65
2022/08/17 06:57:28;;;;;;;12.07;4.15;;;;;;;;;;5078637;28;20028;-65
2022/08/17 06:59:56;;;;;;;6.93;3.88;;;;;;;;;;5055415;28;20036;-65
2022/08/17 07:02:37;;;;;;;8.80;4.13;;;;;;;;;;5092383;28;20032;-64
2022/08/17 07:05:04;;;;;;;7.10;4.13;;;;;;;;;;5092901;28;20050;-64
2022/08/17 07:10:17;;;;;;;6.50;3.72;;;;;;;;;;5093264;28;20043;-64
2022/08/17 07:12:47;;;;;;;5.53;2.92;;;;;;;;;;5090499;28;20035;-64
2022/08/17 07:15:15;;;;;;;8.02;2.90;;;;;;;;;;5092836;28;20028;-64
2022/08/17 07:17:42;;;;;;;5.32;3.28;;;;;;;;;;5092473;28;20024;-64
2022/08/17 07:20:10;;;;;;;7.68;3.53;;;;;;;;;;5092679;28;20032;-65
2022/08/17 07:22:48;;;;;;;4.80;3.13;;;;;;;;;;5091311;28;20043;-65
2022/08/17 07:25:17;;;;;;;10.75;4.70;;;;;;;;;;5092706;28;20119;-65
2022/08/17 07:27:51;;;;;;;4.82;3.42;;;;;;;;;;5078216;28;20029;-64
2022/08/17 07:30:23;;;;;;;6.25;3.25;;;;;;;;;;5072313;28;20707;-64
2022/08/17 07:32:49;;;;;;;9.07;3.78;;;;;;;;;;5071385;28;20543;-65
2022/08/17 07:35:15;;;;;;;7.60;2.97;;;;;;;;;;5071423;28;20040;-65
2022/08/17 07:37:43;;;;;;;6.93;3.58;;;;;;;;;;5072462;28;20127;-64
2022/08/17 07:40:20;;;;;;;8.40;3.22;;;;;;;;;;5071560;28;20036;-65
2022/08/17 07:43:08;;;;;;;9.13;3.38;;;;;;;;;;5082968;28;20052;-65
2022/08/17 07:48:36;;;;;;;9.48;2.92;;;;;;;;;;5092628;28;20042;-66
2022/08/17 07:51:13;;;;;;;7.53;2.90;;;;;;;;;;5091928;28;20028;-66
2022/08/17 07:53:40;;;;;;;4.95;3.03;;;;;;;;;;5091032;28;20111;-67
2022/08/17 07:56:06;;;;;;;6.63;3.08;;;;;;;;;;5074446;28;20028;-67
2022/08/17 07:58:32;;;;;;;8.55;3.63;;;;;;;;;;5073686;28;20028;-66
2022/08/17 08:01:03;;;;;;;5.15;3.03;;;;;;;;;;5053580;28;20032;-67
2022/08/17 08:03:30;;;;;;;11.60;2.85;;;;;;;;;;5071874;28;20259;-67
2022/08/17 08:06:01;;;;;;;17.00;3.22;;;;;;;;;;5072408;28;20032;-66
2022/08/17 08:08:41;;;;;;;5.53;3.28;;;;;;;;;;5053806;28;20063;-66
2022/08/17 08:11:13;;;;;;;7.03;2.90;;;;;;;;;;5070976;28;20150;-67
2022/08/17 08:13:42;;;;;;;6.28;2.85;;;;;;;;;;5052854;28;20029;-66
2022/08/17 08:16:14;;;;;;;4.55;3.13;;;;;;;;;;5053732;28;20017;-67
2022/08/17 08:18:42;;;;;;;7.63;2.92;;;;;;;;;;5071870;28;20028;-67
2022/08/17 08:21:21;;;;;;;7.22;4.00;;;;;;;;;;5053213;28;20093;-67
2022/08/17 08:23:47;;;;;;;5.18;3.20;;;;;;;;;;5070740;28;20039;-67
2022/08/17 08:26:28;;;;;;;5.40;3.63;;;;;;;;;;5071642;28;20574;-66
2022/08/17 08:29:13;;;;;;;5.75;3.15;;;;;;;;;;5071215;28;20485;-67
2022/08/17 08:31:59;;;;;;;6.80;3.80;;;;;;;;;;5090975;28;20106;-66
2022/08/17 08:34:28;;;;;;;13.30;4.00;;;;;;;;;;5090550;28;20059;-67
2022/08/17 08:37:02;;;;;;;9.95;3.22;;;;;;;;;;5096943;28;20086;-67
2022/08/17 08:39:51;;;;;;;5.22;2.45;;;;;;;;;;5111543;28;20422;-67
2022/08/17 08:42:20;;;;;;;5.88;3.33;;;;;;;;;;5041042;28;20416;-67
2022/08/17 08:44:52;;;;;;;15.70;3.15;;;;;;;;;;5090962;28;20111;-67
2022/08/17 08:47:36;;;;;;;4.40;3.08;;;;;;;;;;5091220;28;20058;-67
2022/08/17 08:50:05;;;;;;;8.88;3.55;;;;;;;;;;5091001;28;20028;-67
2022/08/17 08:52:57;;;;;;;6.70;3.33;;;;;;;;;;5072110;28;20448;-67
2022/08/17 08:55:23;;;;;;;10.50;3.30;;;;;;;;;;5086574;28;20050;-66
2022/08/17 08:57:53;;;;;;;7.40;3.63;;;;;;;;;;5082775;28;20070;-66
2022/08/17 09:00:21;;;;;;;7.43;3.08;;;;;;;;;;5070467;28;20052;-67
2022/08/17 09:03:01;;;;;;;4.57;3.20;;;;;;;;;;5070094;28;20504;-66
2022/08/17 09:05:30;;;;;;;8.30;3.15;;;;;;;;;;5070601;28;20116;-66
2022/08/17 09:07:57;;;;;;;7.68;3.38;;;;;;;;;;5052464;28;20052;-67
2022/08/17 09:10:34;;;;;;;6.70;3.22;;;;;;;;;;5070284;28;20027;-67
2022/08/17 09:13:14;;;;;;;6.80;3.47;;;;;;;;;;5070014;28;20481;-67
2022/08/17 09:15:50;;;;;;;8.88;3.28;;;;;;;;;;5070083;28;20056;-67
2022/08/17 09:18:20;;;;;;;5.57;3.05;;;;;;;;;;5052857;28;20402;-67
2022/08/17 09:20:49;;;;;;;7.07;3.20;;;;;;;;;;5070021;28;20028;-66
2022/08/17 09:23:18;;;;;;;5.57;3.13;;;;;;;;;;5069480;28;20043;-66
2022/08/17 09:26:07;;;;;;;8.48;3.38;;;;;;;;;;5052586;28;20046;-66
2022/08/17 09:28:36;;;;;;;9.55;3.13;;;;;;;;;;5032561;28;20036;-66
2022/08/17 09:31:07;;;;;;;9.57;3.10;;;;;;;;;;5069603;28;20493;-66
2022/08/17 09:33:35;;;;;;;8.82;3.33;;;;;;;;;;5052040;28;20028;-67
2022/08/17 09:36:25;;;;;;;5.80;2.78;;;;;;;;;;5052117;28;20090;-67
2022/08/17 09:39:00;;;;;;;7.80;2.95;;;;;;;;;;5059347;28;20040;-66
2022/08/17 09:41:37;;;;;;;14.38;5.93;;;;;;;;;;5069439;28;20508;-66
2022/08/17 09:46:52;;;;;;;5.22;3.28;;;;;;;;;;5090560;22;20068;-67
2022/08/17 09:49:32;;;;;;;3.85;3.17;;;;;;;;;;5108281;28;20033;-66
2022/08/17 09:52:00;;;;;;;8.27;3.50;;;;;;;;;;5103631;28;20074;-66
2022/08/17 09:54:30;;;;;;;4.50;3.22;;;;;;;;;;5089781;28;20035;-66
2022/08/17 09:56:56;;;;;;;;;;;;;;;;;;5090282;28;20499;-67
2022/08/17 09:59:22;;;;;;;7.97;3.13;;;;;;;;;;5088007;28;20627;-66
2022/08/17 10:02:13;;;;;;;6.80;3.60;;;;;;;;;;5089185;28;20043;-66
2022/08/17 10:04:39;;;;;;;4.57;3.42;;;;;;;;;;5089079;28;20028;-66
2022/08/17 10:07:05;;;;;;;9.75;3.55;;;;;;;;;;5089597;28;20026;-66
2022/08/17 17:44:28;;;;;;;8.27;3.30;;;23.00;65.80;;;;;;5147987;27;20407;-64
2022/08/17 17:46:58;;;;;;;6.68;3.15;;;23.00;66.40;;;;;;5127232;28;20058;-64
2022/08/17 17:49:34;;;;;;;8.00;2.97;;;23.00;66.40;;;;;;5109286;27;20027;-65
2022/08/17 17:52:03;;;;;;;7.53;3.55;;;22.90;66.30;;;;;;5106517;28;20035;-64
2022/08/17 17:54:52;;;;;;;5.15;3.40;;;22.90;66.30;;;;;;5107061;28;20367;-64
2022/08/17 17:57:27;;;;;;;6.85;3.78;;;23.00;66.50;;;;;;5107462;28;20095;-64
2022/08/17 18:00:17;;;;;;;6.95;3.38;;;22.90;66.40;;;;;;5107543;28;20355;-64
2022/08/17 18:03:14;;;;;;;5.15;3.25;;;22.90;66.40;;;;;;5106785;28;20156;-64
2022/08/17 18:05:50;;;;;;;5.03;3.22;;;22.90;66.50;;;;;;5133876;22;20435;-65
2022/08/17 18:08:35;;;;;;;6.43;3.03;;;22.90;66.60;;;;;;5106902;28;20028;-66
2022/08/17 18:11:03;;;;;;;10.32;3.63;;;22.90;66.60;;;;;;5106860;28;20028;-66
2022/08/17 18:13:57;;;;;;;5.85;2.97;;;22.90;66.70;;;;;;5106619;28;20031;-65
2022/08/17 18:16:27;;;;;;;5.97;2.75;;;22.90;66.70;;;;;;5107229;28;20056;-65
2022/08/17 18:18:52;;;;;;;6.78;3.30;;;22.90;66.80;;;;;;5106482;28;20057;-65
2022/08/17 18:21:37;;;;;;;9.52;3.55;;;22.90;66.70;;;;;;5090607;28;20032;-65
2022/08/17 18:24:06;;;;;;;6.38;2.90;;;22.90;66.80;;;;;;5086448;28;20024;-65
2022/08/17 18:26:32;;;;;;;12.05;2.90;;;22.90;66.90;;;;;;5086574;28;20317;-65
2022/08/17 18:29:10;;;;;;;6.63;3.15;;;22.90;67.00;;;;;;5086378;28;20233;-69
2022/08/17 18:31:35;;;;;;;12.30;3.40;;;22.90;67.00;;;;;;5086526;28;20036;-68
2022/08/17 18:34:23;;;;;;;6.15;3.35;;;22.90;67.00;;;;;;5085960;28;20035;-68
2022/08/17 18:36:50;;;;;;;10.07;4.15;;;22.80;67.00;;;;;;5085665;28;20182;-68
2022/08/17 18:39:18;;;;;;;9.45;3.22;;;22.90;67.10;;;;;;5086805;28;20658;-66
2022/08/17 18:41:49;;;;;;;10.13;3.20;;;22.80;67.00;;;;;;5086156;28;20029;-67
2022/08/17 18:44:29;;;;;;;7.15;3.22;;;22.80;67.00;;;;;;5078229;28;20032;-66
2022/08/17 18:47:13;;;;;;;8.43;3.67;;;22.80;67.10;;;;;;5073018;28;20048;-66
2022/08/17 18:49:45;;;;;;;10.50;3.38;;;22.80;67.20;;;;;;5072813;28;20025;-66
2022/08/17 18:52:14;;;;;;;12.25;3.65;;;22.80;67.20;;;;;;5091381;28;20051;-67
2022/08/17 18:54:58;;;;;;;11.20;3.30;;;22.80;67.20;;;;;;5092348;28;20028;-66
2022/08/17 18:57:33;;;;;;;7.68;3.03;;;22.80;67.40;;;;;;5093002;28;20066;-66
2022/08/17 19:00:00;;;;;;;17.35;3.70;;;22.80;67.40;;;;;;5092713;28;20556;-67
2022/08/17 19:02:27;;;;;;;14.52;3.70;;;22.80;67.80;;;;;;5092645;28;20099;-67
2022/08/17 19:05:12;;;;;;;25.52;3.97;;;22.80;67.50;;;;;;5090825;28;20056;-66
2022/08/17 19:07:41;;;;;;;8.82;3.55;;;22.70;67.40;;;;;;5072180;28;20032;-66
2022/08/17 19:10:18;;;;;;;10.70;3.78;;;22.70;67.40;;;;;;5072455;28;20067;-67
2022/08/17 19:12:47;;;;;;;16.77;3.72;;;22.70;67.40;;;;;;5072486;28;20194;-66
2022/08/17 19:15:16;;;;;;;14.75;3.67;;;22.70;67.40;;;;;;5071895;28;20025;-66
2022/08/17 19:17:59;;;;;;;15.30;3.67;;;22.70;67.40;;;;;;5072012;28;20101;-66
2022/08/17 19:20:34;;;;;;;17.30;3.80;;;22.70;67.50;;;;;;5071648;28;20396;-66
2022/08/17 19:23:12;;;;;;;12.18;3.35;;;22.70;67.50;;;;;;5072071;28;20051;-66
2022/08/17 19:25:45;;;;;;;15.70;3.70;;;22.70;67.50;;;;;;5072214;28;20024;-66
2022/08/17 19:28:26;;;;;;;6.53;3.08;;;22.70;67.50;;;;;;5072442;28;20379;-66
2022/08/17 19:31:02;;;;;;;6.05;3.33;;;22.70;67.60;;;;;;5071894;28;20052;-66
2022/08/17 19:33:30;;;;;;;9.57;3.08;;;22.70;67.60;;;;;;5071865;28;20040;-66
2022/08/17 19:36:06;;;;;;;4.43;2.83;;;22.70;67.60;;;;;;5071273;28;20058;-66
2022/08/17 19:38:39;;;;;;;8.43;3.58;;;22.70;67.60;;;;;;5072005;28;20032;-66
2022/08/17 19:41:05;;;;;;;3.80;2.80;;;22.70;67.60;;;;;;5053894;28;20089;-66
2022/08/17 19:43:58;;;;;;;8.20;2.90;;;22.60;67.60;;;;;;5071272;28;20021;-66
2022/08/17 19:46:52;;;;;;;5.60;3.70;;;22.60;67.60;;;;;;5071263;28;20032;-66
2022/08/17 19:49:57;;;;;;;4.93;2.80;;;22.70;67.60;;;;;;5053117;28;20082;-66
2022/08/17 19:52:45;;;;;;;8.80;3.10;;;22.70;67.70;;;;;;5051443;28;20080;-66
2022/08/17 19:55:34;;;;;;;5.90;3.17;;;22.60;67.60;;;;;;5057335;28;20111;-66
2022/08/17 19:58:05;;;;;;;3.47;2.85;;;22.60;67.70;;;;;;5071385;28;20024;-67
2022/08/17 20:00:37;;;;;;;4.63;2.90;;;22.60;67.70;;;;;;5071368;28;20037;-66
2022/08/17 20:03:06;;;;;;;4.38;3.47;;;22.60;67.80;;;;;;5052626;28;20035;-66
2022/08/17 20:05:55;;;;;;;5.60;3.20;;;22.60;67.70;;;;;;5070018;28;20024;-66
2022/08/17 20:08:39;;;;;;;6.45;3.10;;;22.60;67.70;;;;;;5071251;28;20297;-66
2022/08/17 20:11:19;;;;;;;4.15;2.83;;;22.60;67.70;;;;;;5071134;28;20035;-66
2022/08/17 20:13:58;;;;;;;4.35;2.78;;;22.60;67.70;;;;;;5070481;28;20505;-66
2022/08/17 20:16:24;;;;;;;3.53;2.90;;;22.60;67.70;;;;;;5070945;28;20047;-66
2022/08/17 20:19:01;;;;;;;6.20;3.17;;;22.60;67.70;;;;;;5070761;28;20489;-66
2022/08/17 20:21:36;;;;;;;7.47;2.95;;;22.60;67.70;;;;;;5074183;28;20021;-66
2022/08/17 20:24:20;;;;;;;4.25;2.63;;;22.60;67.70;;;;;;5070267;28;20074;-66
2022/08/17 20:26:56;;;;;;;4.63;2.55;;;22.60;67.70;;;;;;5070940;28;20028;-66
2022/08/17 20:29:31;;;;;;;28.60;6.68;;;22.60;67.70;;;;;;5070858;28;20116;-66
2022/08/17 20:31:56;;;;;;;4.78;2.72;;;22.50;67.60;;;;;;5070913;28;20029;-67
2022/08/17 20:34:25;;;;;;;5.07;3.05;;;22.60;67.70;;;;;;5068511;28;20626;-66
2022/08/17 20:37:05;;;;;;;7.57;2.97;;;22.60;67.60;;;;;;5068895;28;20021;-66
2022/08/17 20:39:30;;;;;;;;;;;22.60;67.40;;;;;;5069705;28;20020;-66
2022/08/17 20:42:19;;;;;;;4.95;1.65;;;22.50;67.40;;;;;;5069287;28;20254;-66
2022/08/17 20:44:48;;;;;;;8.13;2.60;;;22.60;67.50;;;;;;5067036;28;20340;-67
2022/08/17 20:47:38;;;;;;;5.53;2.95;;;22.50;67.40;;;;;;5069380;28;20362;-66
2022/08/17 20:50:12;;;;;;;11.80;3.20;;;22.50;67.40;;;;;;5070717;28;20043;-66
2022/08/17 20:52:46;;;;;;;7.18;3.60;;;22.60;67.70;;;;;;5070287;28;20037;-67
2022/08/17 20:55:36;;;;;;;5.75;3.80;;;22.60;67.90;;;;;;5070176;28;20032;-67
2022/08/17 20:58:25;;;;;;;12.20;3.30;;;22.50;68.30;;;;;;5051979;28;20020;-67
2022/08/17 21:00:57;;;;;;;7.10;3.85;;;22.50;68.30;;;;;;5061813;28;20037;-67
2022/08/17 21:03:23;;;;;;;33.03;5.93;;;22.50;68.60;;;;;;5069326;28;20024;-67
2022/08/17 21:06:05;;;;;;;7.07;4.20;;;22.50;69.00;;;;;;5070167;28;20488;-67
2022/08/17 21:08:33;;;;;;;8.73;4.32;;;22.50;69.20;;;;;;5051600;28;20025;-67
2022/08/17 21:11:20;;;;;;;9.52;3.97;;;22.50;69.50;;;;;;5069130;28;20023;-67
2022/08/17 21:14:09;;;;;;;5.07;4.00;;;22.50;69.80;;;;;;5069510;28;20036;-67
2022/08/17 21:16:54;;;;;;;11.55;4.60;;;22.50;69.90;;;;;;5041101;28;20036;-66
2022/08/17 21:19:40;;;;;;;13.25;4.70;;;22.50;69.90;;;;;;5070174;28;20055;-67
2022/08/17 21:22:25;;;;;;;15.82;4.65;;;22.50;69.80;;;;;;5069746;28;20029;-67
2022/08/17 21:25:09;;;;;;;10.98;4.90;;;22.50;69.80;;;;;;5069780;28;20052;-67
2022/08/17 21:27:43;;;;;;;7.20;4.65;;;22.50;69.90;;;;;;5070254;28;20040;-67
2022/08/17 21:30:09;;;;;;;8.45;5.35;;;22.50;70.10;;;;;;5051825;28;20028;-67
2022/08/17 21:32:36;;;;;;;12.80;5.15;;;22.50;70.20;;;;;;5069744;28;20048;-67
2022/08/17 21:35:26;;;;;;;16.02;5.53;;;22.50;70.10;;;;;;5051361;28;20381;-67
2022/08/17 21:37:58;;;;;;;11.77;5.38;;;22.50;70.20;;;;;;5082583;28;20499;-67
2022/08/17 21:40:27;;;;;;;7.78;5.03;;;22.50;70.20;;;;;;5072109;28;20035;-67
2022/08/17 21:42:57;;;;;;;14.07;6.00;;;22.50;70.40;;;;;;5089789;28;20012;-68
2022/08/17 21:45:28;;;;;;;9.52;4.95;;;22.50;70.30;;;;;;5089937;28;20032;-67
2022/08/17 21:48:11;;;;;;;8.52;5.18;;;22.40;70.20;;;;;;5071540;28;20047;-67
2022/08/17 21:50:39;;;;;;;9.43;4.43;;;22.40;70.30;;;;;;5090184;28;20020;-67
2022/08/17 21:53:05;;;;;;;6.68;4.40;;;22.40;70.50;;;;;;5055669;28;20093;-67
2022/08/17 21:55:33;;;;;;;9.57;4.95;;;22.40;70.40;;;;;;5069566;28;20516;-67
2022/08/17 21:58:23;;;;;;;11.13;4.88;;;22.40;70.70;;;;;;5069672;28;20039;-67
2022/08/17 22:01:10;;;;;;;10.38;5.70;;;22.40;70.70;;;;;;5052788;28;20024;-67
2022/08/17 22:03:37;;;;;;;8.07;5.20;;;22.40;71.70;;;;;;5089910;28;20107;-67
2022/08/17 22:06:24;;;;;;;15.18;5.68;;;22.40;71.00;;;;;;5071740;28;20047;-67
2022/08/17 22:08:59;;;;;;;7.75;4.60;;;22.40;71.00;;;;;;5051370;28;20469;-67
2022/08/17 22:11:24;;;;;;;9.57;4.80;;;22.40;70.90;;;;;;5069982;28;20032;-67
2022/08/17 22:13:50;;;;;;;11.38;5.20;;;22.40;71.00;;;;;;5051415;28;20520;-68
2022/08/17 22:16:17;;;;;;;11.77;5.20;;;22.40;71.00;;;;;;5069340;28;20055;-68
2022/08/17 22:18:46;;;;;;;8.48;5.03;;;22.30;71.00;;;;;;5051997;28;20029;-67
2022/08/17 22:21:15;;;;;;;14.85;5.78;;;22.40;71.10;;;;;;5073465;28;20024;-67
2022/08/17 22:27:07;;;;;;;8.10;5.63;;;22.30;71.00;;;;;;5093720;28;20031;-67
2022/08/17 22:29:52;;;;;;;9.75;5.80;;;22.30;70.90;;;;;;5075056;28;20031;-67